createdAt,value
2023-02-14T00:00:01.198Z,1.25
2023-02-14T00:05:12.120Z,3.50
2023-02-14T00:10:16.894Z,3.25
2023-02-14T00:15:25.026Z,4.25
2023-02-14T00:20:30.354Z,4.25
2023-02-14T00:25:38.093Z,4.00
2023-02-14T00:30:43.821Z,5.00
2023-02-14T00:35:48.344Z,4.00
2023-02-14T00:40:52.896Z,3.75
2023-02-14T00:45:58.086Z,5.00
2023-02-14T00:51:03.267Z,5.00
2023-02-14T00:56:08.274Z,4.50
2023-02-14T01:01:13.337Z,3.25
2023-02-14T01:06:19.083Z,6.25
2023-02-14T01:11:25.299Z,4.00
2023-02-14T01:16:30.598Z,5.00
2023-02-14T01:21:35.795Z,6.00
2023-02-14T01:26:41.166Z,7.75
2023-02-14T01:31:46.393Z,5.50
2023-02-14T01:36:50.846Z,4.50
2023-02-14T01:41:57.272Z,9.00
2023-02-14T01:47:03.995Z,14.00
2023-02-14T01:52:28.713Z,12.25
2023-02-14T01:57:38.474Z,11.25
2023-02-14T02:02:43.102Z,10.75
2023-02-14T02:07:49.272Z,12.00
2023-02-14T02:12:55.213Z,11.50
2023-02-14T02:18:13.452Z,7.50
2023-02-14T02:23:19.216Z,8.00
2023-02-14T02:28:27.079Z,7.50
2023-02-14T02:33:50.491Z,5.75
2023-02-14T02:38:59.164Z,5.00
2023-02-14T02:44:10.528Z,5.00
2023-02-14T02:49:40.900Z,4.00
2023-02-14T02:54:50.484Z,3.75
2023-02-14T02:59:57.043Z,4.50
2023-02-14T03:05:03.937Z,3.00
2023-02-14T03:10:11.134Z,3.00
2023-02-14T03:15:30.954Z,4.25
2023-02-14T03:20:43.003Z,4.00
2023-02-14T03:26:05.755Z,5.25
2023-02-14T03:31:16.670Z,3.75
2023-02-14T03:36:21.296Z,3.00
2023-02-14T03:41:29.277Z,5.00
2023-02-14T03:46:54.153Z,4.75
2023-02-14T03:52:00.801Z,4.00
2023-02-14T03:57:14.320Z,3.75
2023-02-14T04:02:26.255Z,3.00
2023-02-14T04:07:30.778Z,3.00
2023-02-14T04:12:37.905Z,2.25
2023-02-14T04:18:00.688Z,4.00
2023-02-14T04:23:05.356Z,2.75
2023-02-14T04:28:09.972Z,3.50
2023-02-14T04:33:14.516Z,4.00
2023-02-14T04:38:19.070Z,5.00
2023-02-14T04:43:23.877Z,3.00
2023-02-14T04:48:28.482Z,4.00
2023-02-14T04:53:33.075Z,3.00
2023-02-14T04:58:37.654Z,3.00
2023-02-14T05:03:42.193Z,3.00
2023-02-14T05:08:46.828Z,3.00
2023-02-14T05:13:50.891Z,3.00
2023-02-14T05:18:55.301Z,3.00
2023-02-14T05:23:59.808Z,3.00
2023-02-14T05:29:04.438Z,2.50
2023-02-14T05:34:09.127Z,2.00
2023-02-14T05:39:15.846Z,2.50
2023-02-14T05:44:20.153Z,2.25
2023-02-14T05:49:24.422Z,1.50
2023-02-14T05:54:29.000Z,3.00
2023-02-14T05:59:33.683Z,1.50
2023-02-14T06:04:38.312Z,3.00
2023-02-14T06:09:42.823Z,2.00
2023-02-14T06:14:46.952Z,2.00
2023-02-14T06:19:51.117Z,2.25
2023-02-14T06:24:55.731Z,3.00
2023-02-14T06:30:00.408Z,2.00
2023-02-14T06:35:05.428Z,2.00
2023-02-14T06:40:10.641Z,1.75
2023-02-14T06:45:15.347Z,2.00
2023-02-14T06:50:20.025Z,1.50
2023-02-14T06:55:24.562Z,2.25
2023-02-14T07:00:29.288Z,1.50
2023-02-14T07:05:34.239Z,1.00
2023-02-14T07:10:39.247Z,2.00
2023-02-14T07:15:43.878Z,2.00
2023-02-14T07:20:48.050Z,1.00
2023-02-14T07:25:53.067Z,2.00
2023-02-14T07:31:01.273Z,0.25
2023-02-14T07:36:06.919Z,1.25
2023-02-14T07:41:11.028Z,1.00
2023-02-14T07:46:15.578Z,1.00
2023-02-14T07:51:20.247Z,2.00
2023-02-14T07:56:25.014Z,0.75
2023-02-14T08:01:29.738Z,1.00
2023-02-14T08:06:34.425Z,1.00
2023-02-14T08:11:57.029Z,1.00
2023-02-14T08:17:01.450Z,1.00
2023-02-14T08:22:06.122Z,0.50
2023-02-14T08:27:10.744Z,0.00
2023-02-14T08:32:17.139Z,1.00
2023-02-14T08:37:21.773Z,1.00
2023-02-14T08:42:26.002Z,0.75
2023-02-14T08:47:30.188Z,0.25
2023-02-14T08:52:34.836Z,1.00
2023-02-14T08:57:39.549Z,1.00
2023-02-14T09:02:43.990Z,0.25
2023-02-14T09:07:48.719Z,0.25
2023-02-14T09:12:53.089Z,0.00
2023-02-14T09:17:57.682Z,0.75
2023-02-14T09:23:02.262Z,1.00
2023-02-14T09:28:06.904Z,0.00
2023-02-14T09:33:11.469Z,0.00
2023-02-14T09:38:21.634Z,0.75
2023-02-14T09:43:25.973Z,0.00
2023-02-14T09:48:35.822Z,0.00
2023-02-14T09:53:48.239Z,0.00
2023-02-14T09:59:08.935Z,0.50
2023-02-14T10:04:25.167Z,0.75
2023-02-14T10:09:55.596Z,0.75
2023-02-14T10:15:01.265Z,4.00
2023-02-14T10:20:08.426Z,3.75
2023-02-14T10:25:22.398Z,15.75
2023-02-14T10:30:27.310Z,17.75
2023-02-14T10:35:45.797Z,12.25
2023-02-14T10:41:03.687Z,14.25
2023-02-14T10:46:23.486Z,14.50
2023-02-14T10:51:37.758Z,15.25
2023-02-14T10:56:48.037Z,13.25
2023-02-14T11:01:54.008Z,12.00
2023-02-14T11:06:58.061Z,12.75
2023-02-14T11:12:02.236Z,11.00
2023-02-14T11:17:37.213Z,12.00
2023-02-14T11:22:41.278Z,18.25
2023-02-14T11:27:51.393Z,12.75
2023-02-14T11:32:58.643Z,12.00
2023-02-14T11:38:04.518Z,9.25
2023-02-14T11:43:15.119Z,9.25
2023-02-14T11:48:31.474Z,8.00
2023-02-14T11:53:47.050Z,8.00
2023-02-14T11:59:04.926Z,8.00
2023-02-14T12:04:21.192Z,9.00
2023-02-14T12:09:25.497Z,9.00
2023-02-14T12:14:30.989Z,7.00
2023-02-14T12:19:55.597Z,9.75
2023-02-14T12:25:18.123Z,7.00
2023-02-14T12:30:26.082Z,8.00
2023-02-14T12:35:43.446Z,11.50
2023-02-14T12:40:58.315Z,9.75
2023-02-14T12:46:21.518Z,8.00
2023-02-14T12:51:32.279Z,7.00
2023-02-14T12:56:55.025Z,5.25
2023-02-14T13:02:16.421Z,8.00
2023-02-14T13:07:24.269Z,5.75
2023-02-14T13:12:57.817Z,5.75
2023-02-14T13:18:09.618Z,7.00
2023-02-14T13:23:17.747Z,4.75
2023-02-14T13:28:23.002Z,5.75
2023-02-14T13:33:33.614Z,7.00
2023-02-14T13:38:43.970Z,6.00
2023-02-14T13:44:03.893Z,5.00
2023-02-14T13:49:27.060Z,4.00
2023-02-14T13:54:34.932Z,5.00
2023-02-14T13:59:41.859Z,5.00
2023-02-14T14:04:46.477Z,7.00
2023-02-14T14:09:51.228Z,5.50
2023-02-14T14:15:08.649Z,4.75
2023-02-14T14:20:22.200Z,4.25
2023-02-14T14:25:40.982Z,6.00
2023-02-14T14:30:46.125Z,3.25
2023-02-14T14:35:54.664Z,5.00
2023-02-14T14:40:59.527Z,5.50
2023-02-14T14:46:04.985Z,3.00
2023-02-14T14:51:17.572Z,3.50
2023-02-14T14:56:26.519Z,4.00
2023-02-14T15:01:37.793Z,3.00
2023-02-14T15:06:43.578Z,3.50
2023-02-14T15:12:06.599Z,4.00
2023-02-14T15:17:19.036Z,3.25
2023-02-14T15:22:26.420Z,3.25
2023-02-14T15:27:31.240Z,3.25
2023-02-14T15:32:37.145Z,3.00
2023-02-14T15:37:42.214Z,3.00
2023-02-14T15:42:46.839Z,4.00
2023-02-14T15:47:56.106Z,2.00
2023-02-14T15:53:26.446Z,3.00
2023-02-14T15:58:33.819Z,4.00
2023-02-14T16:03:40.864Z,3.00
2023-02-14T16:08:45.222Z,2.25
2023-02-14T16:13:49.801Z,3.75
2023-02-14T16:18:57.386Z,4.00
2023-02-14T16:24:13.375Z,3.00
2023-02-14T16:29:19.197Z,2.50
2023-02-14T16:34:24.608Z,4.00
2023-02-14T16:39:29.458Z,4.00
2023-02-14T16:44:33.815Z,3.00
2023-02-14T16:49:38.367Z,2.75
2023-02-14T16:54:42.555Z,3.00
2023-02-14T16:59:46.590Z,3.00
2023-02-14T17:04:50.762Z,3.25
2023-02-14T17:09:56.741Z,3.00
2023-02-14T17:15:03.826Z,2.00
2023-02-14T17:20:09.603Z,2.00
2023-02-14T17:25:13.646Z,2.50
2023-02-14T17:30:17.779Z,3.75
2023-02-14T17:35:22.505Z,2.00
2023-02-14T17:40:26.614Z,3.25
2023-02-14T17:45:30.865Z,3.00
2023-02-14T17:50:34.966Z,3.00
2023-02-14T17:55:39.133Z,3.00
2023-02-14T18:00:44.512Z,3.50
2023-02-14T18:05:48.559Z,4.00
2023-02-14T18:10:52.695Z,2.50
2023-02-14T18:15:56.804Z,3.00
2023-02-14T18:21:02.795Z,4.25
2023-02-14T18:26:08.932Z,3.00
2023-02-14T18:31:18.030Z,4.00
2023-02-14T18:36:25.507Z,4.00
2023-02-14T18:41:30.778Z,3.50
2023-02-14T18:46:36.801Z,4.50
2023-02-14T18:51:40.967Z,5.00
2023-02-14T18:56:45.091Z,6.50
2023-02-14T19:01:49.243Z,6.00
2023-02-14T19:06:53.359Z,6.00
2023-02-14T19:12:01.229Z,6.00
2023-02-14T19:17:05.738Z,6.00
2023-02-14T19:22:09.885Z,7.50
2023-02-14T19:27:14.210Z,5.00
2023-02-14T19:32:18.353Z,6.75
2023-02-14T19:37:22.501Z,6.75
2023-02-14T19:42:26.521Z,7.00
2023-02-14T19:47:45.878Z,7.00
2023-02-14T19:52:50.621Z,6.75
2023-02-14T19:57:55.461Z,8.00
2023-02-14T20:03:01.858Z,7.50
2023-02-14T20:08:06.276Z,10.00
2023-02-14T20:13:10.999Z,8.00
2023-02-14T20:18:15.313Z,7.75
2023-02-14T20:23:19.405Z,9.00
2023-02-14T20:28:23.447Z,8.00
2023-02-14T20:33:27.504Z,7.75
2023-02-14T20:38:31.737Z,7.00
2023-02-14T20:43:35.951Z,6.75
2023-02-14T20:48:40.059Z,7.25
2023-02-14T20:53:45.387Z,9.00
2023-02-14T20:58:49.515Z,10.00
2023-02-14T21:03:54.577Z,8.75
2023-02-14T21:08:58.806Z,9.75
2023-02-14T21:14:03.514Z,8.75
2023-02-14T21:19:07.645Z,7.25
2023-02-14T21:24:12.988Z,8.25
2023-02-14T21:29:17.060Z,9.25
2023-02-14T21:34:21.719Z,7.50
2023-02-14T21:39:29.211Z,8.25
2023-02-14T21:44:51.681Z,7.00
2023-02-14T21:50:13.747Z,7.50
2023-02-14T21:55:17.976Z,7.00
2023-02-14T22:00:24.073Z,8.25
2023-02-14T22:05:28.431Z,7.00
2023-02-14T22:10:33.118Z,8.75
2023-02-14T22:15:38.759Z,9.50
2023-02-14T22:20:42.854Z,8.50
2023-02-14T22:25:46.918Z,7.25
2023-02-14T22:30:51.141Z,6.00
2023-02-14T22:35:59.270Z,7.50
2023-02-14T22:41:07.770Z,5.00
2023-02-14T22:46:16.237Z,5.25
2023-02-14T22:51:23.130Z,7.00
2023-02-14T22:56:28.819Z,8.00
2023-02-14T23:01:33.774Z,6.25
2023-02-14T23:06:38.541Z,6.50
2023-02-14T23:11:43.737Z,7.25
2023-02-14T23:17:06.087Z,6.00
2023-02-14T23:22:11.998Z,6.00
2023-02-14T23:27:16.527Z,5.50
2023-02-14T23:32:20.630Z,8.00
2023-02-14T23:37:24.695Z,7.75
2023-02-14T23:42:29.451Z,7.00
2023-02-14T23:47:34.469Z,7.25
2023-02-14T23:52:42.909Z,5.50
2023-02-14T23:57:47.290Z,4.50
